Time;durP1;ratioP1;P1;durP2;ratioP2;P2;SDS_P1;SDS_P2;PMS_P1;PMS_P2;Temp;Humidity;BMP_temperature;BMP_pressure;BME280_temperature;BME280_humidity;BME280_pressure;Samples;Min_cycle;Max_cycle;Signal;HPM_P1;HPM_P2
2023/09/25 00:11:39;;;;;;;1.55;1.27;;;;;;;23.98;52.37;100840.81;41319934;28;20073;-73
2023/09/25 00:31:39;;;;;;;1.92;1.00;;;;;;;23.97;52.19;100811.84;41316968;28;20057;-73
2023/09/25 00:51:41;;;;;;;0.80;0.80;;;;;;;23.94;52.10;100812.97;41352602;28;20112;-72
2023/09/25 01:11:42;;;;;;;1.65;1.13;;;;;;;23.67;51.82;100824.78;41356449;28;20510;-72
2023/09/25 01:31:42;;;;;;;1.15;1.00;;;;;;;23.81;51.59;100865.13;41351433;28;20046;-71
2023/09/25 01:51:45;;;;;;;1.15;1.05;;;;;;;23.89;51.61;100832.78;41331581;28;20065;-73
2023/09/25 02:11:46;;;;;;;1.52;0.95;;;;;;;23.86;51.26;100804.78;41336554;28;20053;-73
2023/09/25 02:31:46;;;;;;;2.75;1.02;;;;;;;23.81;51.47;100743.50;41329989;28;20530;-72
2023/09/25 02:51:47;;;;;;;1.02;0.90;;;;;;;23.76;51.46;100761.56;41340929;28;20827;-71
2023/09/25 03:11:47;;;;;;;2.53;1.20;;;;;;;23.72;51.35;100798.00;41343734;28;20122;-73
2023/09/25 03:31:47;;;;;;;2.42;1.02;;;;;;;23.69;51.41;100792.13;41330666;28;20042;-72
2023/09/25 03:51:49;;;;;;;1.45;1.10;;;;;;;23.66;51.18;100854.84;41328283;28;20054;-71
2023/09/25 04:11:53;;;;;;;2.55;0.95;;;;;;;23.78;51.48;100887.38;41339189;28;20430;-71
2023/09/25 04:31:53;;;;;;;2.58;1.30;;;;;;;23.92;51.64;100899.50;41341245;28;20049;-72
2023/09/25 04:51:54;;;;;;;7.15;2.00;;;;;;;23.96;52.30;100919.47;41371620;28;20089;-77
2023/09/25 05:11:54;;;;;;;17.88;2.38;;;;;;;22.43;51.26;100904.78;41365408;28;20042;-75
2023/09/25 05:31:55;;;;;;;3.92;1.60;;;;;;;22.12;50.51;100914.97;41346148;28;20043;-75
2023/09/25 05:51:55;;;;;;;7.80;2.35;;;;;;;21.62;52.03;100941.38;41357944;28;20050;-78
2023/09/25 06:11:55;;;;;;;3.00;1.45;;;;;;;21.96;51.67;100986.44;41335801;28;20384;-80
2023/09/25 06:31:56;;;;;;;3.97;1.40;;;;;;;21.99;51.35;100990.63;41352154;28;20086;-74
2023/09/25 06:51:57;;;;;;;7.47;1.60;;;;;;;23.02;49.82;101028.00;41329742;28;20042;-76
2023/09/25 07:11:59;;;;;;;26.83;3.10;;;;;;;23.33;50.04;101043.38;41351239;28;20826;-73
2023/09/25 07:32:01;;;;;;;26.23;2.78;;;;;;;23.43;50.02;101023.19;41351684;28;20513;-74
2023/09/25 07:52:01;;;;;;;175.85;9.65;;;;;;;23.58;50.93;101057.34;41372120;28;20058;-73
2023/09/25 08:12:05;;;;;;;320.15;19.08;;;;;;;23.54;51.15;101067.31;41399470;28;20045;-74
2023/09/25 08:32:07;;;;;;;239.38;15.55;;;;;;;23.56;51.53;101038.94;41409633;28;20042;-74
2023/09/25 08:52:08;;;;;;;153.45;11.52;;;;;;;23.57;52.01;101043.28;41387449;28;20079;-75
2023/09/25 09:12:09;;;;;;;98.15;9.82;;;;;;;23.60;52.13;101063.34;41379504;28;20049;-75
2023/09/25 09:32:11;;;;;;;191.15;14.77;;;;;;;23.78;52.14;101071.66;41367944;28;20046;-76
2023/09/25 09:52:12;;;;;;;543.47;35.50;;;;;;;23.88;52.33;101071.78;41372702;28;20553;-74
2023/09/25 10:12:12;;;;;;;296.77;19.77;;;;;;;24.11;52.34;101084.06;41366570;28;20046;-75
2023/09/25 10:32:29;;;;;;;183.45;15.55;;;;;;;24.08;52.84;101078.16;41375722;28;20049;-74
2023/09/25 10:52:29;;;;;;;187.95;25.75;;;;;;;24.24;53.14;101072.50;41341833;28;20565;-75
2023/09/25 11:12:30;;;;;;;106.18;17.25;;;;;;;24.41;52.40;101048.19;41344143;28;20104;-75
2023/09/25 11:32:32;;;;;;;50.20;10.95;;;;;;;24.72;52.50;101029.81;41340545;28;20058;-73
2023/09/25 11:52:32;;;;;;;33.88;6.93;;;;;;;24.62;52.18;101005.88;41345204;28;20066;-76
2023/09/25 12:12:37;;;;;;;41.75;8.93;;;;;;;24.81;53.05;101004.38;41365609;28;20561;-74
2023/09/25 12:32:38;;;;;;;23.08;6.00;;;;;;;24.75;53.54;100963.34;41343834;28;20043;-77
2023/09/25 12:52:38;;;;;;;15.43;4.00;;;;;;;25.28;52.16;100973.97;41395999;28;20062;-79
2023/09/25 13:12:46;;;;;;;15.80;3.85;;;;;;;25.45;50.92;100978.72;41396236;28;20048;-78
2023/09/25 13:32:48;;;;;;;8.93;3.22;;;;;;;25.33;51.44;100926.69;41378062;28;20412;-77
2023/09/25 13:52:54;;;;;;;8.20;3.03;;;;;;;25.71;51.16;100957.84;41416554;28;20088;-80
2023/09/25 14:12:55;;;;;;;10.60;2.90;;;;;;;25.55;50.55;100878.00;41402590;28;20145;-78
2023/09/25 14:32:56;;;;;;;7.47;2.97;;;;;;;25.76;50.24;100915.00;41364181;28;20105;-76
2023/09/25 14:53:04;;;;;;;7.32;2.92;;;;;;;25.65;51.29;100896.56;41355483;28;20045;-82
2023/09/25 15:13:04;;;;;;;13.88;3.72;;;;;;;25.79;52.16;100940.44;41380521;28;20053;-74
2023/09/25 15:33:06;;;;;;;13.63;3.22;;;;;;;25.56;52.21;100954.75;41448126;28;20046;-74
2023/09/25 15:53:07;;;;;;;9.90;3.42;;;;;;;24.73;52.12;100855.84;41429165;28;20052;-72
2023/09/25 16:13:08;;;;;;;10.00;3.60;;;;;;;24.46;52.06;100843.97;41433927;28;20053;-69
2023/09/25 16:33:18;;;;;;;14.85;3.88;;;;;;;24.50;53.68;100958.38;41440189;28;20468;-71
2023/09/25 16:53:18;;;;;;;14.00;3.72;;;;;;;23.53;53.15;100788.06;41473208;28;20038;-75
2023/09/25 17:13:19;;;;;;;16.55;3.83;;;;;;;24.73;55.25;100989.13;41426187;28;20430;-74
2023/09/25 17:33:20;;;;;;;10.27;3.85;;;;;;;25.19;54.94;101002.09;41443298;28;20048;-73
2023/09/25 17:53:22;;;;;;;19.02;4.97;;;;;;;24.88;55.27;100957.03;41403409;28;20061;-74
2023/09/25 18:13:23;;;;;;;14.35;5.25;;;;;;;25.34;54.98;101026.47;41394055;28;20129;-73
2023/09/25 18:33:26;;;;;;;18.23;5.63;;;;;;;25.44;55.63;101032.72;41417087;28;20122;-75
2023/09/25 18:53:29;;;;;;;14.53;5.97;;;;;;;23.86;56.10;100840.97;41454071;28;20045;-76
2023/09/25 19:13:31;;;;;;;;;;;;;;;25.19;55.86;101052.47;41449844;28;20366;-73
2023/09/25 19:33:33;;;;;;;10.73;5.43;;;;;;;25.14;56.01;101066.09;41414929;28;20333;-71
2023/09/25 19:53:33;;;;;;;11.43;5.35;;;;;;;24.78;58.14;101037.25;41361099;28;20100;-74
2023/09/25 20:13:34;;;;;;;11.40;5.35;;;;;;;24.84;58.17;101062.41;41351618;28;20053;-74
2023/09/25 20:33:35;;;;;;;9.18;4.82;;;;;;;23.83;58.01;100919.59;41362319;28;20042;-73
2023/09/25 20:53:37;;;;;;;8.98;4.50;;;;;;;24.56;57.63;101045.22;41353061;28;20046;-73
2023/09/25 21:13:40;;;;;;;9.90;4.65;;;;;;;24.62;57.70;101048.22;41378180;28;20077;-74
2023/09/25 21:33:41;;;;;;;7.10;4.22;;;;;;;24.80;57.20;101074.19;41361804;28;20054;-73
2023/09/25 21:53:42;;;;;;;8.68;4.18;;;;;;;24.63;57.94;101067.59;41360418;28;20042;-73
2023/09/25 22:13:42;;;;;;;6.68;4.45;;;;;;;24.57;57.29;101054.84;41369168;28;20671;-73
2023/09/25 22:33:44;;;;;;;6.43;4.32;;;;;;;24.60;57.40;101068.69;41361907;28;20049;-73
2023/09/25 22:53:46;;;;;;;7.28;4.60;;;;;;;24.33;57.87;101020.63;41380218;28;20077;-74
2023/09/25 23:13:46;;;;;;;5.72;4.35;;;;;;;24.53;57.25;101054.25;41385434;28;20410;-74
2023/09/25 23:33:53;;;;;;;6.75;4.95;;;;;;;24.44;57.08;101049.75;41349003;28;20145;-73
2023/09/25 23:53:53;;;;;;;7.00;4.50;;;;;;;24.37;57.07;101030.03;41341323;28;21548;-73
